DNMM/LOS METAR and TAF weather

Enter ICAO airport designator
Station Type Date Time Source
DNMM METAR 2019/02/23 17:00 UTC NOAA

DNMM 231700Z 27006KT 9999 FEW013 29/26 Q1010 NOSIG


Station Type Date Time Source
DNMM Decoded METAR 2019/02/23 17:00 UTC NOAA

Lagos / Ikeja, Nigeria (DNMM) 06-35N 003-20E 38M
Feb 23, 2019 - 12:00 PM EST / 2019.02.23 1700 UTC
Wind: from the W (270 degrees) at 7 MPH (6 KT):0
Visibility: greater than 7 mile(s):0
Sky conditions: mostly clear
Temperature: 84 F (29 C)
Dew Point: 78 F (26 C)
Relative Humidity: 83%
Pressure (altimeter): 29.83 in. Hg (1010 hPa)
ob: DNMM 231700Z 27006KT 9999 FEW013 29/26 Q1010 NOSIG
cycle: 17

Station Type Date Time Source
DNMM TAF 2019/02/23 18:21 UTC NOAA

TAF DNMM 231550Z 2318/2424 VRB02KT 9999 FEW012
TEMPO 2318/2322 TS BKN011 FEW020CB PROB30 2405/2407 5000 BR


Example: see airport list